Time;durP1;ratioP1;P1;durP2;ratioP2;P2;SDS_P1;SDS_P2;PMS_P1;PMS_P2;Temp;Humidity;BMP_temperature;BMP_pressure;BME280_temperature;BME280_humidity;BME280_pressure;Samples;Min_cycle;Max_cycle;Signal;HPM_P1;HPM_P2
2021/04/23 08:24:23;;;;;;;13.93;9.50;;;;;;;9.84;65.69;100311.62;1690965;82;21186;-72
2021/04/23 08:26:53;;;;;;;12.33;8.15;;;;;;;9.68;65.83;100314.61;1684416;83;21366;-72
2021/04/23 08:29:22;;;;;;;14.45;9.48;;;;;;;9.72;67.25;100318.20;1678570;84;21078;-72
2021/04/23 08:31:52;;;;;;;13.08;8.48;;;;;;;9.88;67.37;100322.31;1690899;83;21102;-72
2021/04/23 08:34:20;;;;;;;13.93;8.33;;;;;;;9.97;67.10;100321.13;1687153;83;21779;-70
2021/04/23 08:36:49;;;;;;;17.15;8.93;;;;;;;10.02;66.69;100315.47;1696384;83;21163;-72
2021/04/23 08:39:17;;;;;;;14.35;8.10;;;;;;;10.09;66.47;100314.52;1674294;83;21190;-71
2021/04/23 08:41:46;;;;;;;14.78;9.05;;;;;;;10.13;66.14;100320.74;1683367;84;21499;-73
2021/04/23 08:44:15;;;;;;;13.05;8.28;;;;;;;10.16;65.93;100317.88;1663236;84;21914;-73
2021/04/23 08:46:43;;;;;;;12.65;8.00;;;;;;;10.08;65.38;100326.88;1697857;83;21189;-72
2021/04/23 08:49:16;;;;;;;11.03;7.65;;;;;;;9.96;65.48;100327.36;1682786;83;21221;-72
2021/04/23 08:51:45;;;;;;;12.05;7.97;;;;;;;10.01;65.92;100329.14;1682888;83;21925;-73
2021/04/23 08:54:14;;;;;;;12.40;7.47;;;;;;;10.14;65.83;100332.17;1663068;84;21740;-73
2021/04/23 08:56:43;;;;;;;10.28;7.10;;;;;;;10.07;65.06;100327.84;1694815;83;21157;-73
2021/04/23 08:59:12;;;;;;;11.93;7.60;;;;;;;9.94;65.15;100331.92;1687234;83;21102;-73
2021/04/23 09:01:40;;;;;;;11.05;7.12;;;;;;;9.84;65.43;100331.41;1662753;84;21197;-70
2021/04/23 09:04:08;;;;;;;12.35;7.40;;;;;;;9.72;65.42;100330.07;1677004;85;21155;-72
2021/04/23 09:06:37;;;;;;;13.38;7.78;;;;;;;9.67;65.48;100336.19;1674413;85;21167;-73
2021/04/23 09:09:10;;;;;;;10.58;6.97;;;;;;;9.71;65.78;100334.15;1634810;86;23076;-72
2021/04/23 09:11:44;;;;;;;10.30;7.43;;;;;;;9.67;65.75;100334.88;1642170;86;21207;-74
2021/04/23 09:14:16;;;;;;;11.57;7.80;;;;;;;9.62;65.88;100340.12;1658136;84;21482;-71
2021/04/23 09:16:59;;;;;;;11.60;7.17;;;;;;;9.55;65.50;100342.37;1661525;84;21107;-70
2021/04/23 09:19:30;;;;;;;10.30;7.25;;;;;;;9.44;65.72;100351.09;1672027;84;21156;-72
2021/04/23 09:22:21;;;;;;;12.78;7.75;;;;;;;9.36;65.70;100356.58;1645880;84;23088;-72
2021/04/23 09:25:05;;;;;;;11.15;7.00;;;;;;;9.30;65.93;100355.73;1647081;85;21150;-72
2021/04/23 09:27:36;;;;;;;12.88;6.70;;;;;;;9.26;66.19;100359.53;1664478;84;21082;-72
2021/04/23 09:30:08;;;;;;;9.80;7.20;;;;;;;9.27;66.23;100354.66;1640131;85;21679;-71
2021/04/23 09:32:40;;;;;;;9.85;6.65;;;;;;;9.18;66.30;100355.69;1647935;85;21240;-73
2021/04/23 09:35:16;;;;;;;9.85;6.95;;;;;;;9.18;66.64;100355.69;1632817;85;22942;-72
2021/04/23 09:37:55;;;;;;;8.15;5.95;;;;;;;9.23;66.64;100350.55;1676933;84;21231;-73
2021/04/23 09:40:31;;;;;;;10.82;6.40;;;;;;;9.30;66.44;100351.30;1683428;84;21202;-71
2021/04/23 09:43:02;;;;;;;11.28;6.53;;;;;;;9.31;66.14;100346.39;1684772;83;21174;-70
2021/04/23 09:45:35;;;;;;;9.68;6.05;;;;;;;9.31;66.12;100352.14;1677206;85;21368;-72
2021/04/23 09:48:04;;;;;;;10.43;6.65;;;;;;;9.29;65.88;100356.69;1677560;84;23056;-71
2021/04/23 09:50:36;;;;;;;14.20;7.35;;;;;;;9.25;65.81;100356.06;1675577;85;21105;-72
2021/04/23 09:53:06;;;;;;;12.05;7.15;;;;;;;9.23;65.88;100355.34;1678022;84;21125;-72
2021/04/23 09:55:36;;;;;;;9.58;6.55;;;;;;;9.24;66.22;100352.22;1668954;83;21192;-71
2021/04/23 09:58:06;;;;;;;9.55;7.17;;;;;;;9.26;65.97;100348.52;1679119;83;22556;-70
2021/04/23 10:00:40;;;;;;;10.78;6.53;;;;;;;9.25;65.71;100352.10;1675148;83;23759;-71
2021/04/23 10:03:08;;;;;;;10.70;6.62;;;;;;;9.22;65.69;100348.86;1682760;83;22454;-71
2021/04/23 10:05:43;;;;;;;8.90;6.37;;;;;;;9.26;66.11;100349.83;1674312;83;21106;-69
2021/04/23 10:08:14;;;;;;;9.65;6.75;;;;;;;9.40;66.20;100345.70;1671423;83;21640;-70
2021/04/23 10:10:54;;;;;;;9.18;5.72;;;;;;;9.57;65.98;100343.61;1675929;83;21186;-69
2021/04/23 10:13:32;;;;;;;9.18;6.15;;;;;;;9.71;65.26;100340.74;1677495;83;21998;-72
2021/04/23 10:16:00;;;;;;;8.45;6.45;;;;;;;9.67;64.96;100345.91;1671243;83;21177;-72
2021/04/23 10:18:29;;;;;;;8.68;6.08;;;;;;;9.62;64.88;100339.64;1656794;84;21140;-71
2021/04/23 10:20:59;;;;;;;8.83;5.60;;;;;;;9.57;64.87;100345.77;1668140;84;21148;-70
2021/04/23 10:23:29;;;;;;;9.35;6.50;;;;;;;9.55;64.51;100341.05;1670417;84;21151;-74
2021/04/23 10:25:58;;;;;;;7.08;5.65;;;;;;;9.60;64.70;100328.86;1680998;83;22573;-72
2021/04/23 10:28:27;;;;;;;9.78;5.60;;;;;;;9.60;64.33;100324.91;1678078;83;21222;-72
2021/04/23 10:30:55;;;;;;;10.05;6.03;;;;;;;9.51;63.97;100334.34;1666432;83;21119;-72
2021/04/23 10:33:26;;;;;;;10.60;5.65;;;;;;;9.46;64.15;100331.23;1676708;83;21130;-72
2021/04/23 10:35:56;;;;;;;8.65;5.92;;;;;;;9.39;63.94;100322.94;1652751;84;21804;-73
2021/04/23 10:38:32;;;;;;;9.05;5.67;;;;;;;9.39;64.04;100318.98;1679844;83;22989;-73
2021/04/23 10:41:04;;;;;;;7.42;5.25;;;;;;;9.45;64.19;100307.11;1675270;84;21121;-74
2021/04/23 10:43:34;;;;;;;7.40;5.53;;;;;;;9.63;64.32;100301.77;1683163;83;21546;-73
2021/04/23 10:46:12;;;;;;;7.47;5.50;;;;;;;9.83;63.86;100300.23;1678807;83;21489;-74
2021/04/23 10:48:46;;;;;;;9.48;4.97;;;;;;;9.94;63.07;100287.52;1664573;84;21182;-74
2021/04/23 10:51:23;;;;;;;10.75;5.03;;;;;;;10.11;62.94;100288.36;1661764;84;21234;-71
2021/04/23 10:53:53;;;;;;;9.35;4.58;;;;;;;10.30;62.77;100288.61;1671046;83;21099;-75
2021/04/23 10:56:37;;;;;;;7.62;4.37;;;;;;;10.53;62.03;100284.63;1643032;85;21119;-74
2021/04/23 10:59:22;;;;;;;6.72;4.53;;;;;;;10.68;60.54;100275.45;1664371;83;21210;-75
2021/04/23 11:01:51;;;;;;;7.47;4.20;;;;;;;10.65;60.67;100284.12;1641507;85;21670;-73
2021/04/23 11:04:20;;;;;;;5.83;3.27;;;;;;;10.63;60.70;100285.57;1655163;84;22073;-71
2021/04/23 11:07:03;;;;;;;8.43;3.70;;;;;;;10.49;60.40;100283.19;1653427;84;21214;-71
2021/04/23 11:09:32;;;;;;;7.00;3.20;;;;;;;10.28;60.60;100285.75;1653951;85;21446;-72
2021/04/23 11:12:12;;;;;;;6.22;4.10;;;;;;;10.08;60.84;100289.94;1652677;85;21107;-75
2021/04/23 11:14:42;;;;;;;6.08;3.60;;;;;;;9.88;61.03;100291.49;1654614;85;21126;-73
2021/04/23 11:17:22;;;;;;;5.65;3.40;;;;;;;9.63;61.49;100295.17;1661265;84;21764;-72
2021/04/23 11:19:53;;;;;;;6.53;3.87;;;;;;;9.48;61.77;100294.20;1652757;85;21230;-73
2021/04/23 11:22:23;;;;;;;5.20;3.17;;;;;;;9.37;62.22;100297.17;1655741;85;21509;-73
2021/04/23 11:25:16;;;;;;;7.37;3.87;;;;;;;9.26;62.55;100291.01;1656394;85;21114;-74
2021/04/23 11:28:06;;;;;;;6.70;4.70;;;;;;;9.07;62.92;100293.73;1669748;84;21196;-74
2021/04/23 11:31:04;;;;;;;6.58;3.37;;;;;;;8.95;63.35;100293.78;1669267;84;22139;-73
2021/04/23 11:33:54;;;;;;;5.40;3.10;;;;;;;8.96;63.85;100283.12;1672115;84;21181;-75
2021/04/23 11:36:33;;;;;;;17.62;10.55;;;;;;;9.02;63.91;100281.84;1670984;84;21204;-73
2021/04/23 11:39:08;;;;;;;30.72;19.82;;;;;;;9.08;64.18;100271.69;1677467;84;21209;-75
2021/04/23 11:41:38;;;;;;;74.22;49.42;;;;;;;9.27;64.18;100278.22;1670753;84;21185;-74
2021/04/23 11:44:46;;;;;;;17.55;13.93;;;;;;;9.45;64.09;100278.12;1671992;84;22078;-74
2021/04/23 11:47:16;;;;;;;7.85;4.83;;;;;;;9.61;63.83;100279.11;1654896;84;21150;-73
2021/04/23 11:49:44;;;;;;;5.67;3.42;;;;;;;9.80;63.97;100270.14;1665724;84;21213;-74
2021/04/23 11:52:12;;;;;;;5.97;3.30;;;;;;;9.98;63.25;100267.87;1669515;84;21454;-73
2021/04/23 11:54:43;;;;;;;4.37;3.30;;;;;;;10.02;62.65;100266.66;1671392;84;21011;-73
2021/04/23 11:57:13;;;;;;;4.33;3.33;;;;;;;10.01;62.37;100259.70;1671199;84;23169;-74
2021/04/23 12:00:02;;;;;;;5.03;3.22;;;;;;;9.96;61.88;100257.44;1671509;84;21157;-73
2021/04/23 12:02:54;;;;;;;7.75;4.15;;;;;;;9.85;62.07;100261.41;1669321;84;22475;-74
2021/04/23 12:05:39;;;;;;;6.05;4.65;;;;;;;9.83;62.55;100264.61;1644941;84;21161;-73
2021/04/23 12:08:17;;;;;;;21.73;18.07;;;;;;;9.83;62.76;100273.01;1662499;84;21700;-72
2021/04/23 12:11:07;;;;;;;6.22;4.75;;;;;;;9.79;62.76;100267.14;1665007;84;21913;-74
2021/04/23 12:13:39;;;;;;;5.47;3.22;;;;;;;9.82;63.16;100271.34;1670805;84;21246;-74
2021/04/23 12:16:09;;;;;;;3.55;2.83;;;;;;;9.77;62.75;100277.46;1664399;84;21221;-72
2021/04/23 12:18:48;;;;;;;2.67;2.30;;;;;;;9.69;62.75;100282.01;1672310;84;21181;-73
2021/04/23 12:21:18;;;;;;;3.67;2.67;;;;;;;9.65;62.80;100278.78;1666163;85;21602;-75
2021/04/23 12:23:45;;;;;;;5.45;2.27;;;;;;;9.64;62.70;100282.34;1663229;84;22547;-73
2021/04/23 12:26:14;;;;;;;3.90;2.08;;;;;;;9.64;62.93;100287.62;1662750;84;21117;-73
2021/04/23 12:28:48;;;;;;;13.22;9.68;;;;;;;9.61;62.73;100289.18;1641673;86;21123;-73
2021/04/23 12:31:28;;;;;;;17.92;13.60;;;;;;;9.56;62.98;100283.44;1653668;85;21274;-72
2021/04/23 12:34:02;;;;;;;4.53;2.60;;;;;;;9.57;63.02;100286.44;1654387;85;21184;-72
2021/04/23 12:36:34;;;;;;;3.27;2.30;;;;;;;9.54;63.04;100282.69;1663461;85;22113;-72
2021/04/23 12:39:07;;;;;;;2.65;2.00;;;;;;;9.49;63.39;100286.17;1655814;85;21141;-74
2021/04/23 12:41:48;;;;;;;5.30;2.60;;;;;;;9.55;63.68;100287.48;1653334;84;21158;-73
2021/04/23 12:44:29;;;;;;;5.10;2.70;;;;;;;9.56;63.54;100282.12;1661379;85;21100;-73
2021/04/23 12:47:06;;;;;;;4.53;2.77;;;;;;;9.52;63.66;100287.73;1661931;86;21462;-72
2021/04/23 12:49:39;;;;;;;5.42;3.40;;;;;;;9.50;63.75;100297.08;1653568;85;21550;-72
2021/04/23 12:52:20;;;;;;;5.53;3.60;;;;;;;9.48;63.88;100295.52;1648730;85;21505;-75
2021/04/23 12:54:53;;;;;;;3.85;2.90;;;;;;;9.41;63.86;100296.45;1662147;85;21161;-73
2021/04/23 12:57:29;;;;;;;4.37;3.20;;;;;;;9.31;64.20;100271.27;1661708;85;21664;-72
2021/04/23 13:00:13;;;;;;;3.42;2.70;;;;;;;9.30;64.32;100274.87;1670411;84;21605;-72
2021/04/23 13:02:42;;;;;;;3.87;3.00;;;;;;;9.29;64.39;100276.30;1668894;84;22071;-72
2021/04/23 13:05:18;;;;;;;4.60;2.92;;;;;;;9.26;64.20;100287.05;1670717;85;21089;-75
2021/04/23 13:07:54;;;;;;;4.15;2.80;;;;;;;9.20;63.78;100278.31;1664359;85;21185;-73
2021/04/23 13:10:25;;;;;;;4.53;2.72;;;;;;;9.13;63.92;100272.66;1658746;85;48060;-75
2021/04/23 13:13:02;;;;;;;5.37;2.42;;;;;;;9.11;63.76;100272.77;1670330;85;21134;-74
2021/04/23 13:15:48;;;;;;;4.40;2.45;;;;;;;9.09;63.70;100276.01;1673516;85;21801;-74
2021/04/23 13:18:26;;;;;;;4.92;2.83;;;;;;;9.06;63.70;100274.89;1673342;85;21216;-74
2021/04/23 13:21:07;;;;;;;4.08;2.52;;;;;;;8.99;63.67;100265.80;1646123;85;21094;-75
2021/04/23 13:23:40;;;;;;;4.80;2.58;;;;;;;8.91;64.13;100268.63;1627797;85;21213;-74
2021/04/23 13:26:10;;;;;;;4.47;2.95;;;;;;;8.85;64.48;100276.50;1654143;85;21201;-73
2021/04/23 13:28:43;;;;;;;6.42;3.10;;;;;;;8.87;64.77;100282.00;1661750;85;21196;-73
2021/04/23 13:31:16;;;;;;;9.15;3.27;;;;;;;8.84;64.84;100285.35;1665291;85;21525;-73
2021/04/23 13:33:44;;;;;;;4.37;2.98;;;;;;;8.83;65.22;100279.25;1653656;86;21193;-74
2021/04/23 13:36:16;;;;;;;7.17;2.90;;;;;;;8.82;65.22;100271.47;1650487;85;21187;-75
2021/04/23 13:38:55;;;;;;;5.62;3.10;;;;;;;8.82;65.22;100262.25;1659174;85;21092;-73
2021/04/23 13:41:30;;;;;;;5.90;2.90;;;;;;;8.84;65.19;100266.91;1656144;85;22048;-74
2021/04/23 13:44:11;;;;;;;8.28;3.87;;;;;;;8.90;65.11;100266.48;1660353;85;21162;-74
2021/04/23 13:46:46;;;;;;;5.05;3.27;;;;;;;8.91;64.78;100269.47;1623929;84;21157;-74
2021/04/23 13:49:27;;;;;;;6.08;3.12;;;;;;;8.96;64.59;100271.27;1657616;85;21653;-73
2021/04/23 13:52:09;;;;;;;6.22;3.50;;;;;;;8.98;64.49;100268.07;1664801;84;21078;-73
2021/04/23 13:54:37;;;;;;;8.40;3.70;;;;;;;8.99;64.14;100267.11;1664226;84;22520;-74
2021/04/23 13:57:16;;;;;;;9.00;3.40;;;;;;;8.95;63.56;100270.07;1657058;85;21123;-80
2021/04/23 13:59:44;;;;;;;7.00;3.67;;;;;;;8.91;63.75;100255.45;1627077;86;21501;-75
2021/04/23 14:02:23;;;;;;;5.22;3.20;;;;;;;8.94;63.81;100256.54;1648765;85;21154;-74
2021/04/23 14:04:52;;;;;;;6.75;3.17;;;;;;;8.95;63.72;100251.16;1663095;85;21090;-76
2021/04/23 14:07:23;;;;;;;7.08;3.90;;;;;;;8.97;63.68;100259.77;1659376;85;21509;-73
2021/04/23 14:09:52;;;;;;;6.58;3.50;;;;;;;9.00;63.65;100257.41;1661377;84;21180;-72
2021/04/23 14:12:23;;;;;;;8.33;3.90;;;;;;;9.02;63.64;100257.66;1666160;84;21144;-72
2021/04/23 14:14:51;;;;;;;7.42;3.65;;;;;;;8.99;63.60;100246.03;1671383;84;21070;-74
2021/04/23 14:17:22;;;;;;;7.15;3.60;;;;;;;8.98;63.60;100250.94;1672691;84;21125;-73
2021/04/23 14:19:52;;;;;;;7.97;3.50;;;;;;;8.98;63.85;100244.84;1670284;85;21491;-75
2021/04/23 14:22:20;;;;;;;7.97;4.65;;;;;;;9.02;63.97;100237.89;1660193;85;21236;-75
2021/04/23 14:24:48;;;;;;;11.18;4.37;;;;;;;9.07;64.17;100225.23;1604142;86;21427;-78
2021/04/23 14:27:18;;;;;;;8.53;5.25;;;;;;;9.09;64.19;100219.84;1663982;84;21201;-78
2021/04/23 14:29:46;;;;;;;7.72;4.70;;;;;;;9.12;64.20;100217.80;1675838;83;21503;-76
2021/04/23 14:32:15;;;;;;;8.15;4.65;;;;;;;9.17;64.31;100223.58;1688175;83;21154;-76
2021/04/23 14:34:43;;;;;;;6.20;3.62;;;;;;;9.24;64.26;100226.56;1688809;83;21070;-75
2021/04/23 14:37:10;;;;;;;8.15;3.95;;;;;;;9.25;64.08;100226.08;1686882;83;21163;-76
2021/04/23 14:39:38;;;;;;;6.53;3.58;;;;;;;9.25;64.09;100229.55;1699725;83;21181;-75
2021/04/23 14:42:06;;;;;;;6.55;3.60;;;;;;;9.26;63.93;100230.39;1681086;83;21198;-76
2021/04/23 14:44:33;;;;;;;6.45;3.80;;;;;;;9.25;63.72;100231.35;1673649;85;22102;-76
2021/04/23 14:47:01;;;;;;;6.97;3.55;;;;;;;9.22;63.71;100234.23;1663507;84;21242;-75
2021/04/23 14:49:28;;;;;;;7.58;3.72;;;;;;;9.20;63.73;100225.12;1646978;85;21186;-75
2021/04/23 14:51:56;;;;;;;7.28;3.47;;;;;;;9.17;63.66;100222.26;1628199;88;21221;-75
2021/04/23 14:54:23;;;;;;;6.20;3.67;;;;;;;9.18;63.61;100219.98;1648929;85;21178;-76
2021/04/23 14:56:52;;;;;;;7.80;3.70;;;;;;;9.17;63.55;100214.83;1670041;84;22999;-77
2021/04/23 14:59:21;;;;;;;8.60;4.60;;;;;;;9.11;63.46;100199.00;1705292;84;22025;-76
2021/04/23 15:01:48;;;;;;;11.65;4.80;;;;;;;9.11;63.62;100202.95;1690569;84;21979;-74
2021/04/23 15:04:15;;;;;;;8.35;3.98;;;;;;;9.10;63.63;100193.84;1675953;83;21559;-75
2021/04/23 15:06:43;;;;;;;7.80;3.98;;;;;;;9.09;63.69;100190.38;1674140;85;21213;-74
2021/04/23 15:09:12;;;;;;;7.85;4.42;;;;;;;9.12;63.81;100191.93;1682768;84;21875;-74
2021/04/23 15:11:41;;;;;;;8.98;4.47;;;;;;;9.17;63.74;100210.40;1674213;83;21645;-76
2021/04/23 15:14:08;;;;;;;9.38;4.97;;;;;;;9.21;63.63;100214.95;1669258;83;21172;-74
2021/04/23 15:16:36;;;;;;;9.90;4.53;;;;;;;9.22;63.18;100217.10;1663594;85;21188;-75
2021/04/23 15:19:05;;;;;;;7.95;4.83;;;;;;;9.17;63.04;100219.63;1669057;84;21779;-75
2021/04/23 15:21:34;;;;;;;11.08;4.65;;;;;;;9.13;63.08;100222.11;1667639;85;21868;-75
2021/04/23 15:24:03;;;;;;;10.80;4.10;;;;;;;9.12;62.92;100225.70;1667413;85;21220;-72
2021/04/23 15:26:31;;;;;;;8.48;4.83;;;;;;;9.13;62.91;100224.75;1655580;85;21226;-73
2021/04/23 15:28:59;;;;;;;10.23;4.90;;;;;;;9.10;62.73;100224.15;1654483;86;21575;-73
2021/04/23 15:31:27;;;;;;;10.10;4.97;;;;;;;9.08;62.76;100228.70;1666724;84;21213;-75
2021/04/23 15:33:55;;;;;;;9.78;5.10;;;;;;;9.06;62.84;100236.69;1636484;85;22981;-76
2021/04/23 15:36:24;;;;;;;9.60;4.53;;;;;;;9.06;62.88;100238.48;1676409;85;21312;-74
2021/04/23 15:38:52;;;;;;;9.30;4.40;;;;;;;9.04;62.71;100237.30;1684592;84;21208;-74
2021/04/23 15:41:20;;;;;;;9.35;4.58;;;;;;;9.05;62.67;100239.45;1699435;83;22316;-72
2021/04/23 15:43:48;;;;;;;6.50;3.72;;;;;;;9.02;62.59;100239.21;1686461;83;21201;-74
2021/04/23 15:46:15;;;;;;;7.12;3.65;;;;;;;8.99;62.39;100238.13;1686610;83;21928;-74
2021/04/23 15:48:44;;;;;;;7.72;4.20;;;;;;;8.97;62.38;100237.86;1678758;83;21157;-75
2021/04/23 15:51:12;;;;;;;11.55;4.22;;;;;;;8.95;62.13;100223.49;1685697;83;21512;-74
2021/04/23 15:53:42;;;;;;;8.45;3.83;;;;;;;8.96;62.11;100229.60;1690770;83;21196;-74
2021/04/23 15:56:09;;;;;;;9.55;3.95;;;;;;;8.98;62.23;100226.40;1641994;85;21229;-75
2021/04/23 15:58:37;;;;;;;7.78;3.55;;;;;;;8.98;62.27;100232.50;1693155;83;22062;-75
2021/04/23 16:01:05;;;;;;;7.87;3.90;;;;;;;8.97;62.21;100230.80;1679636;83;21187;-75
2021/04/23 16:03:33;;;;;;;8.60;3.62;;;;;;;8.95;62.39;100240.61;1691101;83;21502;-73
2021/04/23 16:06:00;;;;;;;6.75;3.58;;;;;;;8.95;62.46;100245.05;1689569;83;21184;-73
2021/04/23 16:08:28;;;;;;;8.03;3.70;;;;;;;8.93;62.55;100243.84;1698635;83;21467;-74
2021/04/23 16:10:56;;;;;;;8.13;3.75;;;;;;;8.92;62.68;100245.28;1685799;83;21423;-72
2021/04/23 16:13:24;;;;;;;8.90;4.25;;;;;;;8.90;62.70;100241.45;1697144;83;21209;-73
2021/04/23 16:15:54;;;;;;;8.40;4.20;;;;;;;8.87;62.70;100249.08;1691815;83;21502;-74
2021/04/23 16:18:22;;;;;;;10.32;4.42;;;;;;;8.87;62.90;100242.98;1690821;83;21553;-74
2021/04/23 16:20:50;;;;;;;7.15;4.60;;;;;;;8.86;63.08;100247.41;1697212;83;21164;-75
2021/04/23 16:23:19;;;;;;;7.30;4.60;;;;;;;8.87;63.12;100243.81;1700494;83;22517;-76
2021/04/23 16:25:47;;;;;;;6.47;4.28;;;;;;;8.86;63.11;100243.45;1712547;83;21242;-73
2021/04/23 16:28:15;;;;;;;8.75;4.60;;;;;;;8.86;63.02;100247.41;1686237;83;21192;-76
2021/04/23 16:30:42;;;;;;;8.13;4.87;;;;;;;8.84;63.07;100245.37;1677706;83;21182;-73
2021/04/23 16:33:09;;;;;;;8.98;5.60;;;;;;;8.83;63.20;100243.69;1686303;83;21466;-73
2021/04/23 16:35:37;;;;;;;13.75;7.20;;;;;;;8.83;63.02;100243.69;1694618;83;23084;-74
2021/04/23 16:38:05;;;;;;;12.73;8.35;;;;;;;8.82;63.16;100247.28;1681830;83;21181;-73
2021/04/23 16:40:36;;;;;;;19.12;10.88;;;;;;;8.82;63.01;100250.39;1665768;83;21193;-76
2021/04/23 16:43:04;;;;;;;21.17;12.50;;;;;;;8.78;63.12;100244.97;1660651;83;21177;-77
2021/04/23 16:45:36;;;;;;;17.67;10.60;;;;;;;8.77;63.29;100243.30;1632578;87;21542;-75
2021/04/23 16:48:01;;;;;;;14.03;10.55;;;;;;;8.76;63.36;100235.03;1651896;85;22294;-74
2021/04/23 16:50:29;;;;;;;17.60;10.18;;;;;;;8.77;63.46;100234.92;1655065;86;21193;-77
2021/04/23 16:52:56;;;;;;;16.82;9.70;;;;;;;8.79;63.61;100234.83;1654473;86;21689;-75
2021/04/23 16:55:23;;;;;;;22.40;12.85;;;;;;;8.79;63.79;100230.87;1634823;86;21603;-75
2021/04/23 16:57:51;;;;;;;18.35;7.95;;;;;;;8.80;64.07;100239.98;1660665;84;21199;-73
2021/04/23 17:00:22;;;;;;;14.95;8.08;;;;;;;8.80;64.47;100239.14;1651503;84;22184;-74
2021/04/23 17:02:51;;;;;;;21.80;9.53;;;;;;;8.75;64.57;100238.62;1643006;86;21785;-76
2021/04/23 17:05:20;;;;;;;16.50;9.78;;;;;;;8.69;64.83;100243.89;1644648;84;21285;-75
2021/04/23 17:07:48;;;;;;;15.65;10.08;;;;;;;8.66;64.90;100232.24;1646930;84;21677;-76
2021/04/23 17:10:19;;;;;;;19.57;11.73;;;;;;;8.65;64.75;100235.83;1648251;86;21202;-75
2021/04/23 17:12:47;;;;;;;16.95;10.72;;;;;;;8.59;64.65;100233.19;1659842;85;21866;-71
2021/04/23 17:15:16;;;;;;;19.48;9.53;;;;;;;8.54;64.55;100239.25;1652438;84;21205;-74
2021/04/23 17:17:45;;;;;;;17.55;9.95;;;;;;;8.49;64.59;100244.03;1672963;83;21531;-75
2021/04/23 17:20:17;;;;;;;17.17;11.05;;;;;;;8.45;64.67;100256.19;1676645;83;21194;-74
2021/04/23 17:22:45;;;;;;;20.90;12.53;;;;;;;8.43;64.80;100247.09;1682751;84;21188;-76
2021/04/23 17:25:16;;;;;;;18.45;11.20;;;;;;;8.43;64.83;100250.20;1678875;85;21847;-75
2021/04/23 17:27:44;;;;;;;19.05;10.40;;;;;;;8.36;64.84;100249.80;1685692;83;21198;-74
2021/04/23 17:30:15;;;;;;;17.82;11.78;;;;;;;8.31;64.94;100255.85;1681889;83;21388;-73
2021/04/23 17:32:43;;;;;;;27.77;15.30;;;;;;;8.29;65.05;100261.20;1613068;87;21166;-74
2021/04/23 17:35:12;;;;;;;32.85;18.17;;;;;;;8.26;65.29;100266.69;1654874;85;21226;-74
2021/04/23 17:37:41;;;;;;;33.53;22.27;;;;;;;8.23;65.45;100274.81;1656604;84;21974;-76
2021/04/23 17:40:13;;;;;;;36.40;21.87;;;;;;;8.20;65.57;100276.80;1653166;85;21206;-76
2021/04/23 17:42:41;;;;;;;37.23;23.92;;;;;;;8.17;65.74;100274.40;1655246;84;21214;-73
2021/04/23 17:45:11;;;;;;;44.38;25.17;;;;;;;8.14;65.92;100272.84;1660443;84;21166;-75
2021/04/23 17:47:40;;;;;;;36.83;23.05;;;;;;;8.13;66.07;100270.31;1634168;85;21231;-74
2021/04/23 17:50:15;;;;;;;38.15;23.12;;;;;;;8.11;66.16;100274.37;1645910;84;22897;-71
2021/04/23 17:52:51;;;;;;;34.43;21.27;;;;;;;8.14;66.30;100270.67;1805669;77;24363;-71
2021/04/23 17:55:19;;;;;;;30.72;18.95;;;;;;;8.07;66.38;100279.95;1751864;81;21754;-72
2021/04/23 17:57:46;;;;;;;27.00;18.12;;;;;;;8.06;66.47;100279.58;1749563;81;22914;-72
2021/04/23 18:00:18;;;;;;;30.05;18.10;;;;;;;8.04;66.53;100284.48;1747808;80;21220;-75
2021/04/23 18:02:52;;;;;;;34.18;21.30;;;;;;;8.00;66.67;100285.63;1744118;81;21201;-73
2021/04/23 18:05:20;;;;;;;39.80;22.50;;;;;;;7.95;66.87;100291.70;1750020;81;21136;-74
2021/04/23 18:07:51;;;;;;;40.17;24.02;;;;;;;7.87;67.08;100290.07;1743010;81;21749;-73
2021/04/23 18:10:19;;;;;;;38.55;22.95;;;;;;;7.82;67.28;100291.36;1747001;81;22321;-75
2021/04/23 18:12:46;;;;;;;32.40;20.75;;;;;;;7.78;67.45;100288.55;1747019;81;21219;-72
2021/04/23 18:15:15;;;;;;;31.90;19.82;;;;;;;7.74;67.64;100292.72;1746966;81;21169;-74
2021/04/23 18:17:43;;;;;;;37.88;22.02;;;;;;;7.72;67.79;100287.17;1744390;81;21180;-73
2021/04/23 18:20:15;;;;;;;38.02;22.13;;;;;;;7.73;67.94;100288.88;1753912;81;21201;-75
2021/04/23 18:22:46;;;;;;;41.45;25.85;;;;;;;7.72;67.98;100295.06;1752674;81;22039;-74
2021/04/23 18:25:16;;;;;;;46.63;28.77;;;;;;;7.71;68.11;100289.44;1745992;81;21255;-74
2021/04/23 18:27:43;;;;;;;49.65;30.40;;;;;;;7.70;68.17;100291.70;1745718;81;21580;-75
2021/04/23 18:30:13;;;;;;;53.65;32.90;;;;;;;7.68;68.25;100296.23;1746347;81;21189;-74
2021/04/23 18:32:45;;;;;;;50.33;32.30;;;;;;;7.66;68.31;100296.34;1742435;81;21153;-74
2021/04/23 18:35:15;;;;;;;50.52;31.90;;;;;;;7.65;68.41;100292.51;1753352;80;22144;-74
2021/04/23 18:37:46;;;;;;;48.28;28.92;;;;;;;7.62;68.50;100290.06;1738500;81;21180;-74
2021/04/23 18:40:18;;;;;;;44.20;28.45;;;;;;;7.61;68.51;100294.96;1745184;81;21194;-73
2021/04/23 18:42:49;;;;;;;41.92;27.13;;;;;;;7.54;68.62;100288.46;1742079;81;21439;-74
2021/04/23 18:45:18;;;;;;;38.78;24.15;;;;;;;7.50;68.67;100289.59;1744660;81;21146;-75
2021/04/23 18:47:46;;;;;;;38.88;25.60;;;;;;;7.45;68.69;100291.23;1749935;81;22503;-78
2021/04/23 18:50:14;;;;;;;40.23;25.55;;;;;;;7.42;68.73;100289.63;1747738;81;21201;-78
2021/04/23 18:52:42;;;;;;;41.75;26.23;;;;;;;7.40;68.77;100285.44;1748988;81;21427;-74
2021/04/23 18:55:11;;;;;;;36.17;24.90;;;;;;;7.37;68.76;100287.81;1731952;82;21190;-72
2021/04/23 18:57:38;;;;;;;36.90;25.12;;;;;;;7.36;68.67;100282.19;1807865;79;21129;-75
2021/04/23 19:00:07;;;;;;;38.80;24.98;;;;;;;7.32;68.65;100282.48;1803783;79;23378;-75
2021/04/23 19:02:34;;;;;;;54.35;36.15;;;;;;;7.30;68.62;100283.06;1761519;79;21188;-75
2021/04/23 19:05:04;;;;;;;69.87;45.50;;;;;;;7.27;68.56;100277.55;1796953;79;21205;-76
2021/04/23 19:07:33;;;;;;;44.53;26.62;;;;;;;7.21;68.53;100280.58;1798943;78;21580;-76
2021/04/23 19:10:00;;;;;;;34.38;19.23;;;;;;;7.16;68.50;100278.27;1788284;79;21098;-74
2021/04/23 19:12:27;;;;;;;30.88;18.17;;;;;;;7.12;68.47;100275.94;1796708;79;21932;-75
2021/04/23 19:14:56;;;;;;;34.67;17.90;;;;;;;7.07;68.51;100276.26;1799953;79;21429;-74
2021/04/23 19:17:24;;;;;;;30.10;16.77;;;;;;;7.03;68.54;100273.44;1786206;79;21131;-74
2021/04/23 19:19:51;;;;;;;26.75;15.45;;;;;;;6.99;68.52;100270.66;1790733;79;21062;-73
2021/04/23 19:22:18;;;;;;;23.50;15.60;;;;;;;6.96;68.51;100274.81;1795579;79;21038;-72
2021/04/23 19:24:46;;;;;;;25.27;15.43;;;;;;;6.91;68.55;100269.02;1742432;82;21987;-73
2021/04/23 19:27:13;;;;;;;23.65;14.73;;;;;;;6.85;68.62;100272.90;1739272;81;21228;-72
2021/04/23 19:29:40;;;;;;;24.07;14.75;;;;;;;6.79;68.74;100267.20;1737206;81;21198;-74
2021/04/23 19:32:08;;;;;;;23.22;15.55;;;;;;;6.74;68.80;100270.11;1719279;80;21100;-72
2021/04/23 19:34:36;;;;;;;22.75;14.25;;;;;;;6.70;68.83;100269.11;1787191;79;21161;-72
2021/04/23 19:37:04;;;;;;;21.80;13.85;;;;;;;6.67;68.86;100268.84;1729296;81;23074;-70
2021/04/23 19:39:31;;;;;;;25.17;14.15;;;;;;;6.64;68.91;100270.34;1807333;79;21097;-73
2021/04/23 19:41:59;;;;;;;23.12;12.58;;;;;;;6.60;68.96;100272.80;1798851;77;21057;-71
2021/04/23 19:44:27;;;;;;;24.25;13.50;;;;;;;6.52;69.09;100267.20;1767392;79;21216;-74
2021/04/23 19:46:54;;;;;;;21.50;13.05;;;;;;;6.43;69.27;100270.41;1782928;79;21078;-71
2021/04/23 19:49:22;;;;;;;21.45;12.30;;;;;;;6.35;69.42;100268.73;1763316;80;22502;-72
2021/04/23 19:51:49;;;;;;;21.33;12.25;;;;;;;6.30;69.56;100268.58;1793095;79;21131;-72
2021/04/23 19:54:17;;;;;;;18.80;11.57;;;;;;;6.27;69.66;100270.53;1777795;80;21095;-72
2021/04/23 19:56:46;;;;;;;21.05;11.43;;;;;;;6.23;69.75;100266.43;1785544;80;21608;-73
2021/04/23 19:59:14;;;;;;;18.00;11.83;;;;;;;6.19;69.82;100264.48;1766653;80;21149;-72
2021/04/23 20:01:46;;;;;;;19.07;11.30;;;;;;;6.16;69.88;100262.03;1763667;79;21901;-72
2021/04/23 20:04:19;;;;;;;15.58;10.78;;;;;;;6.14;69.90;100255.20;1784271;79;21226;-71
2021/04/23 20:06:49;;;;;;;19.60;11.08;;;;;;;6.10;69.97;100247.17;1777747;80;21171;-74
2021/04/23 20:09:18;;;;;;;18.20;11.18;;;;;;;6.04;70.05;100251.01;1779565;80;21198;-72